首页
METAR-TAF:

METAR-TAF

机场 :

马略卡岛帕尔马机场

帕爾馬, 西班牙

纬度: 39-33N, 经度: 002-44E, 海拔: 4米

当前天气观测

该预报发布于40分钟前的23:30 UTC
风速3节,风向东北
温度 16°C
湿度 100%
气压 1018 hPa
能见度10公里或以上
少量云层高于1200英尺

METAR: LEPA 212330Z 04003KT 9999 FEW012 16/16 Q1018 NOSIG

时间: 02:10 (00:10 UTC)

预报

该预报发布于1小时和10分钟前的23:00 UTC
预报有效从22日的 00点(UTC)到 22日的 24点(UTC)
风速3节,风向多变
能见度10公里或以上
少量云层高于3000英尺
几率 30% :
短暂存在
从 22日的 03点(UTC)到 22日的 06点(UTC)
能見度: 4000
轻雾
成为
从 22日的 08点(UTC)到 22日的 10点(UTC)
风速10节,风向东北
成为
从 22日的 17点(UTC)到 22日的 20点(UTC)
风速4节,风向北转东北

TAF: LEPA 212300Z 2200/2224 VRB03KT 9999 FEW030 TX24/2212Z TN12/2206Z PROB30 TEMPO 2203/2206 4000 BR BECMG 2208/2210 04010KT BECMG 2217/2220 02004KT

超过4000个机场的气象观测和天气预报(METAR&TAF报告)。

可查询的气象台以黄色和红色小点在地图上表示。

将鼠标移到小点上方,可查看气象台名称。

然后点击查看天气观测和预报。

如需切换地图:点击带黑十字的绿色按钮放大地图;点击带横线的绿色按钮缩小地图;或者点击绿色箭头查看邻近地区的地图。


METAR-TAF: